Pueblo, Colorado
Current Conditions -  °F | °C
As of 3:53 PM on Tuesday 27 Jan 2015 (Local Time) from KPUB Reporting Station
Clear Clear  
Wind Chill: 71°   Ceiling: Unl
Heat Index: 71°   Visibility: 10mi
Dew Point: 18°   Wind: 7mph
Humidity: 13%   Direction: 150°SSE
Pressure: 30.02"   Gusts: NA
Location:  38.26°N, 104.63°W
Report Text: KPUB 272253Z AUTO 15006KT 10SM CLR 22/M08 A3002 RMK AO2 SLP140 T02171078
Loading
Personal Weather Stations






























Interactive Weather Map New forecast layout! Learn more

10-Day Weather Forecast

Advertisements
Track Severe Weather on mobile